senior outdoor

4x200 Metres Relay men

Filter All Time Top Lists

Filter All Time Top Lists

Limit: 1:23.00

Rank Mark Competitor DOB Nat Pos Venue Date Results Score
1 1:18.63 Jamaica JAM JAM 1 T. Robinson Stadium, Nassau (BAH) 24 MAY 2014 1272
2 1:18.68 Santa Monica Track Club USA USA 1 Walnut, CA (USA) 17 APR 1994 1270
3 1:19.10 World All-Stars INT INT 2 Walnut, CA (USA) 17 APR 1994 1253
4 1:19.16 United States Red USA USA 1 Philadelphia, PA (USA) 26 APR 2003 1251
5 1:19.20 Canada CAN CAN 1f1 Gainesville, FL (USA) 02 APR 2016 1249
6 1:19.39 United States Blue USA USA 1 Philadelphia, PA (USA) 28 APR 2001 1242
7 1:19.47 NIKE USA USA 1 Philadelphia, PA (USA) 24 APR 1999 1239
8 1:19.67 TCU INT INT 1 Philadelphia, PA (USA) 29 APR 2000 1231
9 1:19.73 United States USA USA 1h1 International, Yokohama (JPN) 12 MAY 2019 1229
10 1:19.88 Austin All-Stars INT INT 1 Austin, TX (USA) 03 APR 1999 1223
11 1:19.91 HSI INT INT 2 Austin, TX (USA) 03 APR 1999 1222
12 1:20.07 UTech INT INT 1f1 Philadelphia, PA (USA) 26 APR 2014 1216
13 1:20.23 Tobias Striders INT INT 1 Tempe, AZ (USA) 27 MAY 1978 1210
14 1:20.26 USC USA USA 2 Tempe, AZ (USA) 27 MAY 1978 1209
15 1:20.29 Texas A&M INT INT 2f1 Philadelphia, PA (USA) 26 APR 2014 1208
16 1:20.38 Florida USA USA 1 Gainesville, FL (USA) 03 APR 2010 1204
17 1:20.42 Octagon INT INT 1 Austin, TX (USA) 07 APR 2001 1203
17 1:20.42 South Africa RSA RSA 2f1 International, Yokohama (JPN) 12 MAY 2019 1203
19 1:20.45 Louisiana State INT INT 1f2 Austin, TX (USA) 09 APR 2011 1202
20 1:20.51 Saint Kitts and Nevis SKN SKN 2 T. Robinson Stadium, Nassau (BAH) 24 MAY 2014 1199
21 1:20.66 France FRA FRA 3 T. Robinson Stadium, Nassau (BAH) 24 MAY 2014 1194
22 1:20.69 Pure Athletics USA USA 1f1 Gainesville, FL (USA) 05 APR 2014 1193
23 1:20.72 Gainesville All-Stars INT INT 1 Gainesville, FL (USA) 29 MAR 2002 1191
24 1:20.74 Altis USA USA 1 Torrance, CA (USA) 15 APR 2017 1191
24 1:20.74 Arkansas INT INT 1 Baton Rouge, LA (USA) 29 APR 2017 1191
26 1:20.79 Central Arizona JAM JAM 1 Walnut, CA (USA) 24 APR 1988 1189
26 1:20.79 Star Athletics USA USA 2f1 Gainesville, FL (USA) 02 APR 2016 1189
28 1:20.81 Sprint Capital USA USA 1f1 Raleigh, NC (USA) 01 APR 2000 1188
29 1:20.87 Track Wired Elite INT INT 1 Austin, TX (USA) 01 APR 2017 1186
30 1:20.88 PURE Athletics B USA USA 3f1 Gainesville, FL (USA) 30 MAR 2019 1185
31 1:20.90 Tennessee INT INT 1 Knoxville, TN (USA) 14 APR 2001 1185
32 1:20.94 Houston INT INT 1f2 Austin, TX (USA) 30 MAR 2019 1183
33 1:21.07 Tumbleweed Track Club INT INT 3f1 Gainesville, FL (USA) 01 APR 2017 1178
34 1:21.09 Mississippi State INT INT 2f2 Austin, TX (USA) 03 APR 2010 1178
35 1:21.10 Italy ITA ITA 1 Cagliari (ITA) 29 SEP 1983 1177
36 1:21.17 Houston INT INT 1 Philadelphia, PA (USA) 29 APR 2017 1175
37 1:21.20 Houston USA USA 1f2 Austin, TX (USA) 31 MAR 2018 1173
38 1:21.22 Poland POL POL Gdansk (POL) 14 JUL 2001 1173
39 1:21.23 Unattached USA USA 1f1 Gainesville, FL (USA) 02 APR 2011 1172
40 1:21.25 Baylor USA USA 3f2 Austin, TX (USA) 03 APR 2010 1172
41 1:21.26 Germany GER GER 3f1 International, Yokohama (JPN) 12 MAY 2019 1171
42 1:21.29 England GBR GBR 1 Birmingham (GBR) 23 JUN 1989 1170
43 1:21.32 Ukraine UKR UKR 1 Portsmouth (GBR) 05 JUN 1993 1169
44 1:21.34 GW Exp USA USA 2f1 Gainesville, FL (USA) 02 APR 2011 1168
45 1:21.37 World Express AC INT INT 1f2 Gainesville, FL (USA) 06 APR 2007 1167
46 1:21.39 Trinidad and Tobago TTO TTO 4 T. Robinson Stadium, Nassau (BAH) 23 APR 2017 1166
47 1:21.40 Southern Methodist University INT INT 2 Philadelphia, PA (USA) 25 APR 1986 1166
48 1:21.45 Michael Johnson Relay USA USA 1f1 Olympiastadion, Berlin (GER) 31 AUG 2001 1164
49 1:21.47 LSU INT INT 2f2 Austin, TX (USA) 30 MAR 2019 1163
50 1:21.51 St. Augustine's INT INT 2f1 Philadelphia, PA (USA) 27 APR 2013 1162
51 1:21.53 South Carolina USA USA 1f1 Knoxville, TN (USA) 15 APR 2000 1161
52 1:21.55 G.C. Foster College JAM JAM 2 Philadelphia, PA (USA) 29 APR 2017 1160
53 1:21.57 Zenith Velocity AC INT INT 1f1 Gainesville, FL (USA) 07 APR 2012 1160
54 1:21.62 Nike Comptrack INT INT 2 Philadelphia, PA (USA) 25 APR 1992 1158
55 1:21.63 Russia RUS RUS Sheffield (GBR) 05 JUN 1992 1157
56 1:21.70 PR of China CHN CHN 3h2 International, Yokohama (JPN) 12 MAY 2019 1155
57 1:21.73 Hungary HUN HUN Paris (FRA) 09 JUL 1982 1154
57 1:21.73 Florida State INT INT 1 Philadelphia, PA (USA) 28 APR 2007 1154
59 1:21.87 Mid. Tennessee State INT INT 2 Philadelphia, PA (USA) 28 APR 2001 1149
60 1:21.88 Total Sports INT INT 1 Lawrence, KS (USA) 19 APR 2008 1148
60 1:21.88 Barbados BAR BAR 4 T. Robinson Stadium, Nassau (BAH) 24 MAY 2014 1148
62 1:21.98 Hobson's Choice INT INT 2f1 Lawrence, KS (USA) 19 APR 2008 1144
63 1:22.03 Team U.S.A. USA USA 3f1 Lawrence, KS (USA) 19 APR 2008 1143
64 1:22.06 Maryland Elite Athletic Club INT INT 2f1 Raleigh, NC (USA) 01 APR 2000 1142
64 1:22.06 Cuba CUB CUB 1 La Habana (CUB) 15 FEB 2014 1142
66 1:22.08 Nigeria NGR NGR 4h2 International, Yokohama (JPN) 12 MAY 2019 1141
67 1:22.12 Waseda University JPN JPN 1 Yokohama (JPN) 14 SEP 2014 1139
68 1:22.13 Reebok Enclave USA USA 2f2 Philadelphia, PA (USA) 29 APR 2000 1139
69 1:22.16 RED USA USA 1 Prairie View, TX (USA) 24 MAR 2018 1138
70 1:22.18 Bahamas BAH BAH 4h1 T. Robinson Stadium, Nassau (BAH) 24 MAY 2014 1137
71 1:22.23 USATF High Performance C USA USA 1f2 Gainesville, FL (USA) 30 MAR 2019 1135
72 1:22.26 Elite Athetes international INT INT 3f1 Gainesville, FL (USA) 04 APR 2015 1134
73 1:22.35 Kenya KEN KEN 5 T. Robinson Stadium, Nassau (BAH) 24 MAY 2014 1131
74 1:22.41 Japan JPN JPN 1 Tokorozawa (JPN) 22 SEP 2013 1129
75 1:22.42 Sparta Praha TCH TCH 1 Praha (TCH) 28 MAY 1988 1128
76 1:22.44 UTEP INT INT 1 Des Moines, IA (USA) 27 APR 2001 1128
77 1:22.50 Georgia USA USA 1f3 Des Moines, IA (USA) 25 APR 2014 1125
78 1:22.51 Chuo University JPN JPN 2 Itami (JPN) 05 OCT 2014 1125
79 1:22.52 Clemson INT INT 2 Philadelphia, PA (USA) 29 APR 2000 1125
80 1:22.53 Auburn INT INT 2 Philadelphia, PA (USA) 30 APR 2016 1124
81 1:22.57 UNA - Nike G.W. INT INT 1f1 Raleigh, NC (USA) 26 MAR 2005 1123
82 1:22.60 Arizona Speedsters INT INT 2 Austin, TX (USA) 01 APR 2017 1122
82 1:22.60 Canada B CAN CAN 5f1 Gainesville, FL (USA) 01 APR 2017 1122
84 1:22.62 Nebraska INT INT 2f1 Des Moines, IA (USA) 27 APR 2007 1121
85 1:22.66 Thailand THA THA 3 Philadelphia, PA (USA) 29 APR 2000 1120
85 1:22.66 Pittsburgh USA USA 5f1 Philadelphia, PA (USA) 26 APR 2014 1120
87 1:22.68 South Carolina State USA USA 1f1 Orangeburg, SC (USA) 23 MAR 2013 1119
88 1:22.69 United States B USA USA 5f2 Austin, TX (USA) 31 MAR 2018 1118
89 1:22.72 Oregon USA USA 2f2 Gainesville, FL (USA) 01 APR 2017 1117
90 1:22.73 United States White USA USA 3 Philadelphia, PA (USA) 24 APR 2004 1117
91 1:22.81 Kentucky INT INT 6 Philadelphia, PA (USA) 25 APR 2009 1114
92 1:22.82 Jiangsu CHN CHN 1f1 Shenyang (CHN) 09 JUL 2019 1114
93 1:22.83 Guangdong CHN CHN 1f2 Shenyang (CHN) 09 JUL 2019 1113
94 1:22.90 Purdue INT INT 1f4 Gainesville, FL (USA) 30 MAR 2019 1111
95 1:22.97 UMES INT INT 5f1 Philadelphia, PA (USA) 24 APR 2010 1108
96 1:23.00 L.I.U. Brooklyn INT INT 3 Philadelphia, PA (USA) 30 APR 2016 1107